Latest Weather Observations for Cape Bruny AWS

IDT60801

Issued at 9:31 am EDT Thursday 5 March 2015 (issued every 30 minutes, with the page automatically refreshed every 10 minutes)

About weather observations | Map of weather stations | Latest weather observations for TAS | Other Formats
Station Details ID: 094198 Name: CAPE BRUNY (CAPE BRUNY) Lat: -43.49 Lon: 147.14 Height: 59.7 m
Data from the previous 72 hours. | See also: Recent months at Cape Bruny AWS
Date/Time
EDT
Temp
°C
App
Temp
°C
Dew
Point
Rel
Hum
%
Delta-T
°C
Wind Press
QNH
hPa
Press
MSL
hPa
Rain
since 9 am
mm
Dir
 
Spd
km/h
Gust
km/h
Spd
kts
Gust
kts
05/09:30am 9.1 -4.2 4.1 71 2.2 W 63 85 34 46 1004.1 1004.0 0.2
05/09:00am 9.8 -3.7 2.6 61 3.1 WSW 63 83 34 45 1003.9 1003.8 10.0
05/08:30am 9.9 -3.4 3.9 66 2.6 WSW 63 82 34 44 1002.9 1002.8 10.0
05/08:02am 9.8 -3.4 2.4 60 3.1 WSW 61 82 33 44 1002.4 1002.3 10.0
05/08:00am 9.9 -3.1 3.4 64 2.8 WSW 61 76 33 41 1002.4 1002.3 10.0
05/07:30am 9.5 -3.8 3.7 67 2.5 WSW 63 89 34 48 1001.5 1001.5 10.0
05/07:00am 9.4 -3.3 2.9 64 2.8 WSW 59 80 32 43 1000.8 1000.8 9.8
05/06:40am 9.5 -3.3 4.5 71 2.2 WSW 61 85 33 46 1000.1 1000.1 9.8
05/06:30am 9.4 -3.2 5.6 77 1.7 W 61 76 33 41 999.9 999.9 9.8
05/06:20am 9.6 -2.6 5.6 76 1.8 WSW 59 76 32 41 999.5 999.5 9.8
05/06:11am 8.8 -2.4 6.1 83 1.2 WSW 54 83 29 45 999.5 999.5 9.8
05/06:09am 8.3 -3.4 5.1 80 1.4 WSW 56 83 30 45 999.5 999.5 9.8
05/06:06am 8.5 -3.4 5.3 80 1.4 WSW 57 83 31 45 999.6 999.6 9.6
05/06:05am 8.7 -3.0 5.3 79 1.5 WSW 56 83 30 45 999.4 999.4 9.6
05/06:00am 8.7 -1.6 4.5 75 1.9 SW 48 69 26 37 999.4 999.4 9.4
05/05:30am 8.2 -1.5 5.7 84 1.1 WSW 46 72 25 39 998.8 998.8 9.4
05/05:00am 9.8 -0.5 6.3 79 1.6 WSW 50 70 27 38 997.9 997.9 8.4
05/04:46am 9.4 -0.2 6.1 80 1.5 WSW 46 69 25 37 997.6 997.6 8.4
05/04:44am 9.5 0.5 6.2 80 1.5 WSW 43 61 23 33 997.6 997.6 8.4
05/04:30am 8.7 -0.7 5.3 79 1.5 WSW 44 63 24 34 997.8 997.8 8.2
05/04:00am 8.1 -4.3 4.9 80 1.4 WSW 59 91 32 49 997.4 997.3 8.0
05/03:54am 8.9 -2.1 5.1 77 1.7 WSW 52 91 28 49 996.9 996.8 8.0
05/03:53am 9.1 -1.5 5.1 76 1.8 WSW 50 91 27 49 997.0 996.9 8.0
05/03:30am 8.5 -1.2 6.0 84 1.1 W 46 69 25 37 997.0 996.9 8.0
05/03:00am 8.2 -0.4 6.7 90 0.7 W 41 59 22 32 997.2 997.1 6.8
05/02:50am 8.1 0.2 6.4 89 0.8 WSW 37 67 20 36 997.0 996.9 5.8
05/02:30am 8.6 -2.2 5.9 83 1.2 WSW 52 65 28 35 996.6 996.5 3.2
05/02:16am 8.9 1.8 6.2 83 1.2 WSW 33 59 18 32 996.6 996.5 3.0
05/02:00am 9.3 2.8 6.7 84 1.2 W 30 39 16 21 996.8 996.7 3.0
05/01:30am 9.8 2.7 6.5 80 1.5 W 33 44 18 24 996.2 996.1 2.6
05/01:00am 9.7 1.5 6.6 81 1.5 W 39 50 21 27 996.4 996.3 2.4
05/12:30am 10.2 1.6 8.1 87 1.0 W 43 54 23 29 996.5 996.4 2.2
05/12:08am 10.5 3.7 7.6 82 1.4 W 33 54 18 29 996.1 996.0 0.8
05/12:00am 11.0 6.3 7.9 81 1.5 W 22 30 12 16 996.2 996.1 0.4
 
Date/Time
EDT
Temp
°C
App
Temp
°C
Dew
Point
Rel
Hum
%
Delta-T
°C
Wind Press
QNH
hPa
Press
MSL
hPa
Rain
since 9 am
mm
Dir
 
Spd
km/h
Gust
km/h
Spd
kts
Gust
kts
04/11:30pm 11.1 9.1 8.5 84 1.3 SW 9 13 5 7 995.8 995.7 0.4
04/11:00pm 11.5 7.4 8.5 82 1.5 WSW 20 30 11 16 996.0 995.9 0.0
04/10:30pm 12.6 7.9 7.9 73 2.3 WNW 22 30 12 16 996.0 995.9 0.0
04/10:00pm 12.9 6.1 7.6 70 2.6 WNW 33 44 18 24 996.1 996.0 0.0
04/09:30pm 13.6 6.8 6.9 64 3.3 WNW 32 41 17 22 996.5 996.4 0.0
04/09:13pm 13.8 6.3 8.0 68 2.9 WNW 37 56 20 30 996.4 996.3 0.0
04/09:00pm 13.9 5.2 8.3 69 2.8 W 44 56 24 30 996.3 996.2 0.0
04/08:30pm 14.0 6.2 8.2 68 2.9 W 39 46 21 25 996.4 996.3 0.0
04/08:16pm 14.2 6.0 8.2 67 3.0 WNW 41 59 22 32 996.4 996.3 0.0
04/08:00pm 14.4 6.6 8.4 67 3.0 WNW 39 46 21 25 996.3 996.2 0.0
04/07:30pm 14.7 7.3 8.2 65 3.3 W 37 46 20 25 996.7 996.6 0.0
04/07:00pm 14.6 7.1 7.9 64 3.4 W 37 46 20 25 996.9 996.8 0.0
04/06:30pm 15.1 6.1 7.4 60 3.8 WNW 44 59 24 32 997.0 996.9 0.0
04/06:00pm 16.1 6.2 8.3 60 4.0 WNW 50 61 27 33 997.6 997.6 0.0
04/05:30pm 16.5 6.3 8.7 60 4.0 WNW 52 61 28 33 998.1 998.1 0.0
04/05:01pm 16.6 5.6 7.0 53 4.8 W 54 72 29 39 997.9 997.9 0.0
04/05:00pm 16.5 6.0 7.4 55 4.6 W 52 63 28 34 997.9 997.9 0.0
04/04:30pm 16.0 5.9 7.5 57 4.2 WNW 50 61 27 33 998.1 998.1 0.0
04/04:04pm 16.5 4.6 7.2 54 4.6 W 59 80 32 43 998.0 998.0 0.0
04/04:00pm 15.9 4.9 9.1 64 3.5 W 57 74 31 40 998.2 998.2 0.0
04/03:32pm 17.4 7.3 7.5 52 5.0 WNW 50 69 27 37 998.6 998.6 0.0
04/03:30pm 17.5 6.9 7.0 50 5.2 WNW 52 69 28 37 998.6 998.6 0.0
04/03:00pm 17.9 7.9 7.9 52 5.1 WNW 50 78 27 42 999.3 999.3 0.0
04/02:34pm 17.6 8.0 7.9 53 4.9 WNW 48 69 26 37 999.6 999.6 0.0
04/02:30pm 17.0 7.7 7.4 53 4.8 WNW 46 63 25 34 999.7 999.7 0.0
04/02:00pm 16.8 7.5 7.7 55 4.6 WNW 46 69 25 37 999.7 999.7 0.0
04/01:30pm 16.9 7.3 7.8 55 4.6 WNW 48 83 26 45 999.8 999.8 0.0
04/01:00pm 18.1 8.5 8.1 52 5.2 WNW 48 67 26 36 999.9 999.9 0.0
04/12:30pm 17.5 8.9 8.1 54 4.8 NW 43 61 23 33 1000.4 1000.4 0.0
04/12:04pm 16.2 7.4 7.4 56 4.4 NW 43 63 23 34 1001.0 1001.0 0.0
04/12:00pm 16.2 7.9 7.7 57 4.3 NW 41 57 22 31 1001.1 1001.1 0.0
04/11:34am 15.3 7.1 8.1 62 3.6 NW 41 59 22 32 1001.4 1001.4 0.0
04/11:30am 15.2 6.4 8.2 63 3.5 NW 44 59 24 32 1001.4 1001.4 0.0
04/11:21am 15.6 5.4 8.4 62 3.7 WNW 52 70 28 38 1001.4 1001.4 0.0
04/11:03am 16.3 7.6 8.3 59 4.1 WNW 44 72 24 39 1001.0 1001.0 0.0
04/11:00am 16.1 8.4 8.6 61 3.9 WNW 39 59 21 32 1001.1 1001.1 0.0
04/10:30am 16.4 7.9 8.4 59 4.1 WNW 43 61 23 33 1001.2 1001.2 0.0
04/10:22am 16.8 9.8 8.5 58 4.3 WNW 35 59 19 32 1001.2 1001.2 0.0
04/10:15am 16.4 8.1 9.3 63 3.7 WNW 43 57 23 31 1001.3 1001.3 0.0
04/10:00am 16.5 5.8 9.7 64 3.6 W 56 74 30 40 1001.1 1001.1 0.0
04/09:56am 16.5 6.5 9.2 62 3.8 W 52 70 28 38 1001.0 1001.0 0.0
04/09:39am 16.9 11.3 8.6 58 4.3 WNW 28 52 15 28 1000.9 1000.9 0.0
04/09:30am 16.9 11.8 7.8 55 4.6 NW 24 35 13 19 1000.8 1000.8 0.0
04/09:00am 16.4 8.2 8.4 59 4.1 WNW 41 69 22 37 1000.8 1000.8 0.0
04/08:59am 16.4 7.6 7.9 57 4.3 WNW 44 69 24 37 1000.8 1000.8 0.0
04/08:55am 16.7 6.0 7.9 56 4.5 WNW 54 76 29 41 1000.6 1000.6 0.0
04/08:38am 16.5 5.6 7.2 54 4.6 NW 54 85 29 46 1000.2 1000.2 0.0
04/08:31am 16.5 7.0 6.9 53 4.8 NW 46 76 25 41 1000.5 1000.5 0.0
04/08:30am 16.4 7.6 7.3 55 4.5 NW 43 76 23 41 1000.5 1000.5 0.0
04/08:28am 16.4 7.6 7.1 54 4.6 NW 43 76 23 41 1000.6 1000.6 0.0
04/08:25am 16.1 7.1 7.1 55 4.5 NW 44 76 24 41 1000.5 1000.5 0.0
04/08:23am 16.2 7.3 6.9 54 4.6 NW 43 65 23 35 1000.8 1000.8 0.0
04/08:22am 16.1 7.1 7.3 56 4.4 NW 44 65 24 35 1000.9 1000.9 0.0
04/08:08am 16.0 5.8 7.0 55 4.5 NW 50 80 27 43 1000.5 1000.5 0.0
04/08:05am 15.9 6.4 6.9 55 4.4 NW 46 70 25 38 1000.5 1000.5 0.0
04/08:00am 15.4 7.4 7.4 59 4.0 NW 39 65 21 35 1000.8 1000.8 0.0
04/07:39am 15.4 8.7 7.4 59 4.0 NW 32 52 17 28 1001.0 1001.0 0.0
04/07:30am 15.2 9.7 7.5 60 3.8 NW 26 35 14 19 1001.3 1001.3 0.0
04/07:00am 14.7 10.3 7.3 61 3.7 WNW 20 33 11 18 1001.4 1001.4 0.0
04/06:35am 14.7 6.9 6.8 59 3.9 NW 37 57 20 31 1001.4 1001.4 0.0
04/06:30am 14.5 7.6 7.1 61 3.6 NW 33 48 18 26 1001.4 1001.4 0.0
04/06:08am 14.3 8.8 7.6 64 3.3 NW 26 46 14 25 1002.2 1002.1 0.0
04/06:00am 14.0 10.2 7.5 65 3.2 N 17 28 9 15 1002.2 1002.1 0.0
04/05:30am 14.6 8.6 7.2 61 3.6 NW 28 52 15 28 1002.6 1002.5 0.0
04/05:00am 14.7 6.7 7.3 61 3.7 WNW 39 57 21 31 1002.8 1002.7 0.0
04/04:40am 14.5 8.8 6.6 59 3.8 WNW 26 48 14 26 1003.4 1003.3 0.0
04/04:38am 14.5 9.8 7.8 64 3.3 WNW 22 41 12 22 1003.5 1003.4 0.0
04/04:30am 14.3 10.2 6.4 59 3.8 NNW 17 22 9 12 1003.8 1003.7 0.0
04/04:00am 14.1 9.9 5.5 56 4.1 NNW 17 26 9 14 1003.3 1003.2 0.0
04/03:30am 14.4 7.3 5.5 55 4.2 WNW 32 43 17 23 1003.8 1003.7 0.0
04/03:12am 14.4 7.2 5.2 54 4.3 NW 32 52 17 28 1004.1 1004.0 0.0
04/03:00am 14.1 7.0 5.7 57 4.0 NW 32 41 17 22 1004.2 1004.1 0.0
04/02:30am 14.1 6.7 5.2 55 4.2 NW 33 46 18 25 1004.6 1004.5 0.0
04/02:12am 14.0 8.4 5.4 56 4.1 NW 24 44 13 24 1005.1 1005.0 0.0
04/02:00am 13.1 9.8 6.2 63 3.3 N 13 17 7 9 1005.7 1005.6 0.0
04/01:30am 13.1 8.9 5.5 60 3.6 NNW 17 26 9 14 1006.3 1006.2 0.0
04/01:00am 12.9 9.5 5.8 62 3.4 NNW 13 22 7 12 1007.0 1006.9 0.0
04/12:30am 13.4 9.3 6.0 61 3.5 WNW 17 28 9 15 1007.8 1007.7 0.0
04/12:00am 13.9 7.9 5.3 56 4.1 NW 26 35 14 19 1008.3 1008.2 0.0
 
Date/Time
EDT
Temp
°C
App
Temp
°C
Dew
Point
Rel
Hum
%
Delta-T
°C
Wind Press
QNH
hPa
Press
MSL
hPa
Rain
since 9 am
mm
Dir
 
Spd
km/h
Gust
km/h
Spd
kts
Gust
kts
03/11:30pm 13.6 7.8 4.5 54 4.2 NW 24 32 13 17 1008.6 1008.5 0.0
03/11:00pm 13.8 5.5 4.1 52 4.5 NW 37 52 20 28 1008.4 1008.3 0.0
03/10:45pm 14.0 6.5 3.2 48 4.9 NW 32 50 17 27 1008.8 1008.7 0.0
03/10:30pm 13.9 7.0 2.8 47 4.9 NW 28 41 15 22 1009.1 1009.0 0.0
03/10:06pm 14.2 7.2 4.2 51 4.6 WNW 30 48 16 26 1010.2 1010.1 0.0
03/10:00pm 14.1 8.0 4.7 53 4.4 NW 26 39 14 21 1010.2 1010.1 0.0
03/09:30pm 14.7 7.7 4.1 49 4.9 NW 30 41 16 22 1010.3 1010.2 0.0
03/09:00pm 14.6 8.9 2.8 45 5.3 NW 22 33 12 18 1010.3 1010.2 0.0
03/08:30pm 14.1 9.3 4.4 52 4.5 NNW 19 32 10 17 1010.2 1010.1 0.0
03/08:00pm 15.2 8.4 4.9 50 4.9 NW 30 48 16 26 1009.8 1009.7 0.0
03/07:58pm 15.2 8.3 4.6 49 5.0 WNW 30 48 16 26 1009.8 1009.7 0.0
03/07:30pm 15.4 7.1 6.1 54 4.5 WNW 39 48 21 26 1009.5 1009.4 0.0
03/07:00pm 16.1 8.9 4.8 47 5.4 WNW 32 48 17 26 1010.0 1009.9 0.0
03/06:35pm 17.1 10.2 4.4 43 6.0 WNW 30 48 16 26 1010.2 1010.1 0.0
03/06:30pm 17.4 10.1 4.7 43 6.1 WNW 32 48 17 26 1010.2 1010.1 0.0
03/06:09pm 17.6 10.8 3.1 38 6.7 WNW 28 46 15 25 1010.1 1010.0 0.0
03/06:00pm 17.9 10.7 3.0 37 6.9 WNW 30 39 16 21 1010.1 1010.0 0.0
03/05:30pm 18.2 10.0 2.5 35 7.2 WNW 35 54 19 29 1010.2 1010.1 0.0
03/05:27pm 18.2 10.0 2.9 36 7.1 WNW 35 54 19 29 1010.2 1010.1 0.0
03/05:11pm 18.8 11.9 2.6 34 7.5 WNW 28 43 15 23 1010.4 1010.3 0.0
03/05:00pm 17.9 15.0 4.5 41 6.4 WNW 9 24 5 13 1010.6 1010.5 0.0
03/04:30pm 17.4 14.0 5.7 46 5.7 S 13 17 7 9 1011.1 1011.0 0.0
03/04:00pm 16.9 12.9 4.9 45 5.7 S 15 20 8 11 1011.4 1011.3 0.0
03/03:30pm 16.7 13.0 4.4 44 5.8 S 13 19 7 10 1011.7 1011.6 0.0
03/03:00pm 17.5 13.8 6.1 47 5.6 S 15 22 8 12 1012.2 1012.2 0.0
03/02:30pm 15.4 11.4 5.0 50 4.9 SSW 15 20 8 11 1012.4 1012.4 0.0
03/02:00pm 17.3 13.2 4.3 42 6.1 S 15 20 8 11 1012.7 1012.7 0.0
03/01:30pm 18.3 15.2 3.4 37 7.0 WNW 9 17 5 9 1013.0 1013.0 0.0
03/01:00pm 17.2 13.8 2.0 36 6.8 W 9 15 5 8 1013.4 1013.4 0.0
03/12:30pm 17.6 13.4 3.9 40 6.4 W 15 19 8 10 1013.9 1013.9 0.0
03/12:00pm 15.5 11.5 2.7 42 5.8 W 13 15 7 8 1014.3 1014.3 0.0
03/11:30am 16.1 11.6 2.2 39 6.2 W 15 20 8 11 1014.5 1014.5 0.0
03/11:00am 15.5 11.8 4.2 47 5.3 W 13 20 7 11 1014.7 1014.7 0.0
03/10:30am 16.0 11.7 3.4 43 5.8 WNW 15 19 8 10 1014.5 1014.5 0.0
03/10:00am 14.1 9.1 3.8 50 4.7 W 19 26 10 14 1014.3 1014.3 0.0
03/09:30am 14.2 9.6 3.7 49 4.8 W 17 20 9 11 1014.3 1014.3 0.0
03/09:00am 13.3 6.9 3.1 50 4.5 WNW 26 32 14 17 1014.0 1014.0 0.0
03/08:30am 13.2 5.5 3.6 52 4.3 W 33 43 18 23 1013.9 1013.9 0.0
03/08:00am 12.8 4.8 3.7 54 4.1 W 35 46 19 25 1013.5 1013.5 0.0
03/07:30am 12.6 3.8 5.5 62 3.3 WSW 41 50 22 27 1013.2 1013.2 0.0
03/07:00am 12.7 5.7 6.7 67 2.9 WSW 33 46 18 25 1012.7 1012.7 0.0
03/06:30am 12.8 5.5 7.0 68 2.8 WSW 35 48 19 26 1012.3 1012.3 0.0
03/06:00am 13.1 6.6 6.7 65 3.1 W 30 41 16 22 1011.8 1011.8 0.0
03/05:30am 13.1 6.1 6.9 66 3.0 WSW 33 43 18 23 1011.6 1011.5 0.0
03/05:00am 13.0 6.2 7.0 67 2.9 WSW 32 41 17 22 1011.4 1011.3 0.0
03/04:30am 12.5 4.5 7.4 71 2.5 W 39 50 21 27 1011.1 1011.0 0.0
03/04:00am 12.9 5.1 6.7 66 3.0 W 37 54 20 29 1011.1 1011.0 0.0
03/03:44am 12.9 4.0 7.8 71 2.5 W 44 63 24 34 1011.0 1010.9 0.0
03/03:30am 12.9 4.3 8.2 73 2.3 WSW 43 57 23 31 1010.9 1010.8 0.0
03/03:00am 12.4 4.3 8.5 77 1.9 WSW 41 61 22 33 1011.0 1010.9 0.0
03/02:56am 12.4 3.8 8.3 76 2.0 WSW 43 61 23 33 1011.0 1010.9 0.0
03/02:30am 12.7 6.5 9.2 79 1.8 WSW 32 46 17 25 1011.0 1010.9 0.0
03/02:00am 13.6 6.5 8.2 70 2.7 W 35 46 19 25 1010.9 1010.8 0.0
03/01:54am 15.2 10.4 8.7 65 3.3 WNW 24 46 13 25 1010.8 1010.7 0.0
03/01:30am 14.6 11.4 6.9 60 3.8 NNW 13 22 7 12 1010.6 1010.5 0.0
03/01:00am 14.6 10.1 6.2 57 4.1 N 19 26 10 14 1010.5 1010.4 0.0
03/12:30am 14.3 10.2 6.2 58 3.9 N 17 28 9 15 1010.5 1010.4 0.0
03/12:00am 14.3 9.5 5.7 56 4.1 NNW 20 30 11 16 1010.4 1010.3 0.0
 
Date/Time
EDT
Temp
°C
App
Temp
°C
Dew
Point
Rel
Hum
%
Delta-T
°C
Wind Press
QNH
hPa
Press
MSL
hPa
Rain
since 9 am
mm
Dir
 
Spd
km/h
Gust
km/h
Spd
kts
Gust
kts
02/11:30pm 14.5 10.1 5.0 53 4.5 NNW 17 26 9 14 1011.0 1010.9 0.0
02/11:00pm 14.6 9.7 4.3 50 4.8 NW 19 28 10 15 1011.3 1011.2 0.0
02/10:30pm 14.9 7.4 4.3 49 4.9 WNW 33 46 18 25 1011.3 1011.2 0.0
02/10:00pm 14.9 5.4 4.9 51 4.7 WNW 44 56 24 30 1011.4 1011.3 0.0
02/09:51pm 15.0 8.0 6.0 55 4.3 WNW 32 48 17 26 1011.7 1011.6 0.0
02/09:30pm 14.6 9.5 7.6 63 3.5 W 24 30 13 16 1011.8 1011.8 0.0
02/09:00pm 14.0 9.8 8.2 68 2.9 WNW 20 35 11 19 1011.6 1011.5 0.0
02/08:30pm 13.1 12.7 8.2 72 2.4 CALM 0 0 0 0 1011.3 1011.2 0.0
02/08:00pm 13.1 11.3 8.0 71 2.5 SSE 7 9 4 5 1010.9 1010.8 0.0
02/07:30pm 13.9 11.3 7.9 67 3.0 SSE 11 15 6 8 1010.8 1010.7 0.0
02/07:00pm 14.4 11.4 7.9 65 3.2 S 13 20 7 11 1010.6 1010.5 0.0
02/06:30pm 14.6 10.4 7.4 62 3.6 S 19 30 10 16 1010.9 1010.8 0.0
02/06:00pm 15.7 12.4 8.2 61 3.8 S 15 20 8 11 1010.6 1010.5 0.0
02/05:30pm 15.6 12.1 8.6 63 3.6 S 17 20 9 11 1010.8 1010.7 0.0
02/05:00pm 16.5 13.1 9.0 61 3.9 SSE 17 22 9 12 1011.2 1011.1 0.0
02/04:30pm 15.6 11.6 8.4 62 3.7 S 19 28 10 15 1011.3 1011.2 0.0
02/04:00pm 15.8 12.1 7.8 59 4.0 SSW 17 24 9 13 1011.8 1011.8 0.0
02/03:30pm 16.7 13.7 7.6 55 4.6 S 13 17 7 9 1012.4 1012.4 0.0
02/03:00pm 17.1 14.0 7.2 52 5.0 SSE 13 17 7 9 1012.9 1012.9 0.0
02/02:30pm 18.6 14.9 6.1 44 6.2 NE 15 20 8 11 1013.3 1013.3 0.0
02/02:00pm 17.4 13.2 4.0 41 6.3 NE 15 24 8 13 1013.7 1013.7 0.0
02/01:30pm 17.7 13.4 5.3 44 6.0 NNE 17 28 9 15 1014.3 1014.3 0.0
02/01:00pm 16.7 12.5 5.6 48 5.4 NE 17 22 9 12 1014.9 1014.9 0.0
02/12:30pm 15.4 11.4 5.0 50 4.9 NNE 15 20 8 11 1015.6 1015.6 0.0
02/12:00pm 14.7 10.5 3.8 48 5.0 N 15 20 8 11 1016.6 1016.6 0.0
02/11:30am 14.7 10.7 2.6 44 5.4 NNE 13 19 7 10 1017.0 1017.0 0.0
02/11:00am 14.8 10.6 3.9 48 5.0 NE 15 22 8 12 1017.5 1017.5 0.0
02/10:30am 13.4 8.9 4.0 53 4.3 NNE 17 24 9 13 1017.5 1017.5 0.0
02/10:00am 13.6 9.5 6.0 60 3.6 NNE 17 26 9 14 1017.7 1017.7 0.0

Other Formats:

Comma delimited format used in spreadsheet applications
http://www.bom.gov.au/fwo/IDT60801/IDT60801.95967.axf

JavaScript Object Notation format (JSON) in row-major order
http://www.bom.gov.au/fwo/IDT60801/IDT60801.95967.json